Flight Track Log - Related Links

Times and Time Zones

All times are in EDT time to prevent confusion due to time zone crossing. See the AIP5038 flight status page for this flight to view local times or setup timezone preferences in your user account.


Time Position Orientation Groundspeed Altitude Reporting Facility
EDT Latitude Longitude Course Direction KTS MPH feet Rate Location/Type
Wed 03:21:52 AM 46.9236 -114.1100 109° East 121 139 4,200  Level Salt Lake Center
Wed 03:22:52 AM 46.9028 -114.1233 204° Southwest 119 137 6,000 1,736 Climbing Salt Lake Center
Wed 03:23:53 AM 46.8956 -114.0742 102° East 118 136 7,700 1,587 Climbing Salt Lake Center
Wed 03:24:53 AM 46.8814 -114.0286 114° Southeast 122 140 9,200 1,450 Climbing Salt Lake Center
Wed 03:25:53 AM 46.8728 -113.9783 104° East 127 146 10,600 1,339 Climbing Salt Lake Center
Wed 03:26:00 AM 46.8195 -113.5365 107° East  Level Estimated
Wed 03:26:54 AM 46.8625 -113.9272 106° East 132 152 11,900  Level Salt Lake Center
Wed 03:27:00 AM 46.7983 -113.4464 109° East  Level FlightAware Approximate
Wed 03:27:54 AM 46.8556 -113.8700 100° East 142 163 13,000  Level Salt Lake Center
Wed 03:28:54 AM 46.8419 -113.8122 109° East 156 180 14,200 1,091 Climbing Salt Lake Center
Wed 03:29:55 AM 46.8344 -113.7519 100° East 153 176 15,200 992 Climbing Salt Lake Center
Wed 03:30:55 AM 46.8236 -113.6869 104° East 154 177 16,200 850 Climbing Salt Lake Center
Wed 03:31:55 AM 46.8144 -113.6242 102° East 159 183 16,900 397 Climbing Salt Lake Center
Wed 03:32:56 AM 46.8031 -113.5497 103° East 186 214 17,000  Climbing Salt Lake Center
Wed 03:33:56 AM 46.7900 -113.4692 103° East 204 235 16,900 -50 Descending Salt Lake Center
Wed 03:34:56 AM 46.7764 -113.3883 104° East 207 238 16,900 50 Level Salt Lake Center
Wed 03:35:57 AM 46.7561 -113.3117 111° Southeast 204 235 17,000 50 Climbing Salt Lake Center
Wed 03:36:57 AM 46.7444 -113.2356 103° East 204 235 17,000 50 Level Salt Lake Center
Wed 03:37:57 AM 46.7358 -113.1514 98° East 208 239 17,100 50 Climbing Salt Lake Center
Wed 03:38:58 AM 46.7172 -113.0722 109° East 208 239 17,100  Level Salt Lake Center
Wed 03:39:58 AM 46.6986 -112.9914 109° East 211 243 17,100 -50 Level Salt Lake Center
Wed 03:40:58 AM 46.6961 -112.8972 92° East 214 246 17,000 -50 Descending Salt Lake Center
Wed 03:41:59 AM 46.6742 -112.8197 112° Southeast 210 242 17,000  Level Salt Lake Center
Wed 03:42:59 AM 46.6567 -112.7386 107° East 211 243 17,000  Level Salt Lake Center
Wed 03:43:59 AM 46.6406 -112.6553 106° East 212 244 17,000 50 Level Salt Lake Center
Wed 03:44:59 AM 46.6286 -112.5725 102° East 212 244 17,100 50 Climbing Salt Lake Center
Wed 03:46:00 AM 46.6139 -112.4900 105° East 212 244 17,100  Level Salt Lake Center
Wed 03:47:00 AM 46.6000 -112.4081 104° East 210 242 17,100 -50 Level Salt Lake Center
Wed 03:48:00 AM 46.5914 -112.3225 98° East 213 245 17,000 -50 Descending Salt Lake Center
Wed 03:49:01 AM 46.5661 -112.2453 115° Southeast 212 244 17,000  Level Salt Lake Center
Wed 03:50:01 AM 46.5522 -112.1606 103° East 213 245 17,000 50 Level Salt Lake Center
Wed 03:51:01 AM 46.5314 -112.0783 110° East 216 249 17,100  Climbing Salt Lake Center
Wed 03:52:01 AM 46.5158 -111.9956 105° East 214 246 17,000  Descending Salt Lake Center
Wed 03:53:02 AM 46.5036 -111.9131 102° East 211 243 17,100 50 Climbing Salt Lake Center
Wed 03:54:02 AM 46.4878 -111.8331 106° East 210 242 17,100 -50 Level Salt Lake Center
Wed 03:55:02 AM 46.4739 -111.7489 103° East 212 244 17,000 -50 Descending Salt Lake Center
Wed 03:56:03 AM 46.4581 -111.6678 106° East 212 244 17,000  Level Salt Lake Center
Wed 03:57:03 AM 46.4431 -111.5875 105° East 211 243 17,000  Level Salt Lake Center
Wed 03:58:03 AM 46.4228 -111.5086 110° East 210 242 17,000 50 Level Salt Lake Center
Wed 03:59:04 AM 46.4058 -111.4294 107° East 209 241 17,100  Climbing Salt Lake Center
Wed 04:00:05 AM 46.3883 -111.3494 108° East 208 239 17,000 -50 Descending Salt Lake Center
Wed 04:01:05 AM 46.3700 -111.2742 109° East 205 236 17,000 -50 Level Salt Lake Center
Wed 04:02:05 AM 46.3547 -111.1917 105° East 209 241 16,900  Descending Salt Lake Center
Wed 04:03:05 AM 46.3383 -111.1106 106° East 211 243 17,000 99 Climbing Salt Lake Center
Wed 04:04:06 AM 46.3192 -111.0319 109° East 210 242 17,100  Climbing Salt Lake Center
Wed 04:05:06 AM 46.3006 -110.9414 107° East 210 242 17,000  Descending Salt Lake Center
Wed 04:06:06 AM 46.2822 -110.8608 108° East 211 243 17,100 50 Climbing Salt Lake Center
Wed 04:07:06 AM 46.2667 -110.7786 105° East 213 245 17,100  Level Salt Lake Center
Wed 04:08:07 AM 46.2492 -110.6969 107° East 214 246 17,100 -50 Level Salt Lake Center
Wed 04:09:07 AM 46.2322 -110.6150 107° East 214 246 17,000 -50 Descending Salt Lake Center
Wed 04:10:07 AM 46.2150 -110.5342 107° East 213 245 17,000 50 Level Salt Lake Center
Wed 04:11:07 AM 46.2003 -110.4508 104° East 215 247 17,100  Climbing Salt Lake Center
Wed 04:12:08 AM 46.1858 -110.3689 104° East 212 244 17,000  Descending Salt Lake Center
Wed 04:13:08 AM 46.1744 -110.2831 101° East 218 251 17,100 50 Climbing Salt Lake Center
Wed 04:14:08 AM 46.1564 -110.2036 108° East 213 245 17,100  Level Salt Lake Center
Wed 04:15:08 AM 46.1397 -110.1244 107° East 208 239 17,100  Level Salt Lake Center
Wed 04:16:09 AM 46.1200 -110.0506 111° Southeast 200 230 17,100 -50 Level Salt Lake Center
Wed 04:17:09 AM 46.1019 -109.9708 108° East 207 238 17,000  Descending Salt Lake Center
Wed 04:18:09 AM 46.0836 -109.8953 109° East 203 234 17,100  Climbing Salt Lake Center
Wed 04:19:09 AM 46.0658 -109.8058 106° East 204 235 17,000 -149 Descending Salt Lake Center
Wed 04:20:10 AM 46.0497 -109.7275 106° East 209 241 16,800 -347 Descending Salt Lake Center
Wed 04:21:10 AM 46.0397 -109.6406 99° East 219 252 16,300 -600 Descending Salt Lake Center
Wed 04:22:10 AM 46.0186 -109.5536 109° East 232 267 15,600 -750 Descending Salt Lake Center
Wed 04:23:10 AM 45.9997 -109.4681 108° East 227 261 14,800 -1,200 Descending Salt Lake Center
Wed 04:24:10 AM 45.9769 -109.3825 111° Southeast 231 266 13,200 -1,488 Descending Salt Lake Center
Wed 04:25:11 AM 45.9528 -109.2844 109° East 241 277 11,800 -1,190 Descending Salt Lake Center
Wed 04:26:11 AM 45.9328 -109.1942 108° East 240 276 10,800 -1,050 Descending Salt Lake Center
Wed 04:27:11 AM 45.9153 -109.1047 106° East 237 273 9,700 -950 Descending Salt Lake Center
Wed 04:28:11 AM 45.8956 -109.0167 108° East 235 270 8,900 -850 Descending Salt Lake Center
Wed 04:29:11 AM 45.8783 -108.9297 106° East 231 266 8,000 -843 Descending Salt Lake Center
Wed 04:30:12 AM 45.8597 -108.8425 107° East 231 266 7,200 -645 Descending Salt Lake Center
Wed 04:31:12 AM 45.8400 -108.7586 109° East 226 260 6,700 -550 Descending Salt Lake Center
Wed 04:32:12 AM 45.8169 -108.6697 110° East 225 259 6,100 -400 Descending Salt Lake Center
Wed 04:33:12 AM 45.7897 -108.5944 117° Southeast 218 251 5,900 -350 Descending Salt Lake Center
Wed 04:34:12 AM 45.7656 -108.5358 121° Southeast 181 208 5,400 -496 Descending Salt Lake Center
Wed 04:35:13 AM 45.7797 -108.4889 67° East 142 163 4,900 -843 Descending Salt Lake Center
Wed 04:36:13 AM 45.8011 -108.5136 321° Northwest 110 127 3,700 -1,200 Descending Salt Lake Center
Wed 04:38:00 AM 45.7921 -108.5333 North  Level FlightAware Approximate

Login

Don't have an account? Register now (free) for customized features, flight alerts, and more!